Aérodrome :
LOGIN :

S'inscrire | Disclaimer

   EN    FR    IT 

 










Légende :    VFR   VFR Marginal   IFR   IFR Intensif   IFR Très Intensif
Visi : 
Plafond : 
>= 8 km
>= 3000ft
5 à 8 km
1000 à 3000 ft
1500m à 5 km
500 à 1000 ft
800 à 1500m
200 à 500 ft
< 800m
< 200 ft
Symboles :   Orages  Brouillard  Fortes neiges  Fortes précipitations  Vent > 20 kt
SIGMETs :   Divers  Orages  Givrage  Turbulence  Onde Orograph.  Cendres Volcan.






- Altitude de l'aérodrome : 1017 ft


LFSL - Brive Souillac

DERNIER METAR :
  • 301000Z AUTO 29005KT 240V320 9999 FEW020 13/08 Q1014 TEMPO BKN008

METARs EXPIRÉS :
  • 300930Z AUTO 34006KT 300V030 CAVOK 13/08 Q1014 TEMPO BKN008
  • 300900Z AUTO 36004KT 320V050 CAVOK 12/08 Q1013 TEMPO BKN008
  • 300830Z AUTO 35003KT 310V030 CAVOK 10/08 Q1013 TEMPO BKN008
  • 300800Z AUTO 36005KT 9999 FEW044 BKN066 09/07 Q1013 NOSIG
  • 300730Z AUTO 34005KT 9999 BKN045 BKN054 OVC066 08/08 Q1012 NOSIG

TAF TAF LFSL
Valide du 30 à 09h jusqu'au 30 à 18h UTC


300800Z 3009/3018 33005KT 9999 BKN035
PROB30
TEMPO 3009/3011 BKN008



MET'MAP, la Météo Aéronautique d'un coup d'oeil ! - Copyright ORBIFLY Décembre 2007 - Disclaimer

ORBIFLY MET'MAP TEAM :

Programmation & Développement : Alexandra Zaïnal
Sur une idée originale de : Baudouin d'Aumeries
Soutien technique & logistique : Manuel Goepfert
Assistance : Marc-Olivier Méhu




SOURCES & CREDITS :

   NOAA